createdAt,value
2018-04-20T00:00:20.510Z,43.74
2018-04-20T00:01:20.584Z,43.54
2018-04-20T00:02:20.276Z,44.02
2018-04-20T00:03:20.294Z,43.74
2018-04-20T00:04:20.603Z,43.64
2018-04-20T00:05:20.620Z,43.84
2018-04-20T00:06:20.696Z,43.64
2018-04-20T00:07:20.665Z,44.31
2018-04-20T00:08:20.688Z,44.22
2018-04-20T00:09:20.712Z,44.12
2018-04-20T00:10:20.776Z,44.02
2018-04-20T00:11:20.756Z,44.12
2018-04-20T00:12:20.776Z,44.12
2018-04-20T00:13:20.798Z,44.22
2018-04-20T00:14:20.539Z,44.12
2018-04-20T00:15:20.848Z,44.29
2018-04-20T00:16:20.866Z,44.29
2018-04-20T00:17:20.889Z,44.29
2018-04-20T00:18:20.913Z,44.31
2018-04-20T00:19:20.935Z,44.31
2018-04-20T00:20:20.673Z,44.38
2018-04-20T00:21:20.743Z,44.48
2018-04-20T00:22:20.715Z,44.48
2018-04-20T00:23:20.740Z,44.48
2018-04-20T00:24:21.041Z,44.58
2018-04-20T00:25:21.062Z,44.38
2018-04-20T00:26:21.137Z,44.1
2018-04-20T00:27:20.824Z,44.77
2018-04-20T00:28:21.132Z,44.68
2018-04-20T00:29:21.155Z,44.38
2018-04-20T00:30:21.174Z,44.58
2018-04-20T00:31:21.246Z,44.58
2018-04-20T00:32:20.937Z,44.68
2018-04-20T00:33:21.243Z,44.87
2018-04-20T00:34:21.261Z,44.87
2018-04-20T00:35:21.289Z,44.58
2018-04-20T00:36:21.359Z,44.96
2018-04-20T00:37:21.330Z,44.96
2018-04-20T00:38:21.388Z,44.96
2018-04-20T00:39:21.374Z,44.96
2018-04-20T00:40:21.394Z,45.25
2018-04-20T00:41:21.280Z,45.25
2018-04-20T00:42:21.441Z,45.25
2018-04-20T00:43:21.465Z,45.15
2018-04-20T00:44:21.199Z,45.15
2018-04-20T00:45:21.510Z,45.32
2018-04-20T00:46:21.578Z,45.14
2018-04-20T00:47:21.550Z,45.14
2018-04-20T00:48:21.291Z,45.06
2018-04-20T00:49:21.594Z,45.14
2018-04-20T00:50:21.613Z,45.32
2018-04-20T00:51:21.637Z,45.32
2018-04-20T00:52:21.661Z,45.14
2018-04-20T00:53:21.399Z,45.14
2018-04-20T00:54:21.701Z,45.14
2018-04-20T00:55:21.726Z,45.32
2018-04-20T00:56:21.746Z,45.42
2018-04-20T00:57:21.770Z,45.32
2018-04-20T00:58:21.511Z,45.42
2018-04-20T00:59:21.816Z,45.23
2018-04-20T01:00:21.833Z,45.32
2018-04-20T01:01:21.573Z,45.52
2018-04-20T01:02:22.150Z,45.32
2018-04-20T01:03:21.897Z,45.32
2018-04-20T01:04:21.921Z,45.42
2018-04-20T01:05:21.958Z,45.61
2018-04-20T01:06:21.970Z,45.52
2018-04-20T01:07:21.985Z,45.61
2018-04-20T01:08:22.006Z,45.52
2018-04-20T01:09:22.025Z,45.52
2018-04-20T01:10:22.048Z,45.71
2018-04-20T01:11:22.058Z,46
2018-04-20T01:12:22.135Z,45.71
2018-04-20T01:13:21.823Z,45.81
2018-04-20T01:14:22.121Z,45.61
2018-04-20T01:15:21.870Z,45.81
2018-04-20T01:16:21.897Z,45.9
2018-04-20T01:17:22.183Z,45.78
2018-04-20T01:18:22.218Z,45.9
2018-04-20T01:19:21.963Z,46
2018-04-20T01:20:22.250Z,45.9
2018-04-20T01:21:22.294Z,45.88
2018-04-20T01:22:22.018Z,45.98
2018-04-20T01:23:22.323Z,46.07
2018-04-20T01:24:22.061Z,45.98
2018-04-20T01:25:22.355Z,45.98
2018-04-20T01:26:22.105Z,45.88
2018-04-20T01:27:22.410Z,46.07
2018-04-20T01:28:22.429Z,46.17
2018-04-20T01:29:22.169Z,46.45
2018-04-20T01:30:22.183Z,46.17
2018-04-20T01:31:22.216Z,46.07
2018-04-20T01:32:22.510Z,46.26
2018-04-20T01:33:22.260Z,46.26
2018-04-20T01:34:22.545Z,46.55
2018-04-20T01:35:22.567Z,46.55
2018-04-20T01:36:22.307Z,46.26
2018-04-20T01:37:22.331Z,46.45
2018-04-20T01:38:22.646Z,46.45
2018-04-20T01:39:22.672Z,46.45
2018-04-20T01:40:22.889Z,46.07
2018-04-20T01:41:22.695Z,46.26
2018-04-20T01:42:22.734Z,46.65
2018-04-20T01:43:22.463Z,46.26
2018-04-20T01:44:22.756Z,46.72
2018-04-20T01:45:22.782Z,46.55
2018-04-20T01:46:22.801Z,47.01
2018-04-20T01:47:22.823Z,46.36
2018-04-20T01:48:22.859Z,46.84
2018-04-20T01:49:22.891Z,46.81
2018-04-20T01:50:22.901Z,46.91
2018-04-20T01:51:22.631Z,47.1
2018-04-20T01:52:22.930Z,47.01
2018-04-20T01:53:22.948Z,46.62
2018-04-20T01:54:22.974Z,47.01
2018-04-20T01:55:22.723Z,47.2
2018-04-20T01:56:23.023Z,47.2
2018-04-20T01:57:23.091Z,47.01
2018-04-20T01:58:23.056Z,47.01
2018-04-20T01:59:23.078Z,47.3
2018-04-20T02:00:23.109Z,47.39
2018-04-20T02:01:23.122Z,47.3
2018-04-20T02:02:23.145Z,47.39
2018-04-20T02:03:22.881Z,46.62
2018-04-20T02:04:23.200Z,47.2
2018-04-20T02:05:22.934Z,46.72
2018-04-20T02:06:23.239Z,46.81
2018-04-20T02:07:23.254Z,47.2
2018-04-20T02:08:23.269Z,47.49
2018-04-20T02:09:23.308Z,47.3
2018-04-20T02:10:23.303Z,47.68
2018-04-20T02:11:23.336Z,47.2
2018-04-20T02:12:23.365Z,47.1
2018-04-20T02:13:23.388Z,47.58
2018-04-20T02:14:23.396Z,47.49
2018-04-20T02:15:23.415Z,47.68
2018-04-20T02:16:23.160Z,47.39
2018-04-20T02:17:23.460Z,47.39
2018-04-20T02:18:23.207Z,47.68
2018-04-20T02:19:23.504Z,47.87
2018-04-20T02:20:23.245Z,48.16
2018-04-20T02:21:23.540Z,47.87
2018-04-20T02:22:23.561Z,48.07
2018-04-20T02:23:23.592Z,48.07
2018-04-20T02:24:23.619Z,48.16
2018-04-20T02:25:23.352Z,48.25
2018-04-20T02:26:23.671Z,48.16
2018-04-20T02:27:23.703Z,48.64
2018-04-20T02:28:23.688Z,48.04
2018-04-20T02:29:23.713Z,48.07
2018-04-20T02:30:23.747Z,47.94
2018-04-20T02:31:23.755Z,48.13
2018-04-20T02:32:23.512Z,48.52
2018-04-20T02:33:23.807Z,47.77
2018-04-20T02:34:23.828Z,47.94
2018-04-20T02:35:23.844Z,47.85
2018-04-20T02:36:23.590Z,47.87
2018-04-20T02:37:23.611Z,48.23
2018-04-20T02:38:23.894Z,48.13
2018-04-20T02:39:23.928Z,48.23
2018-04-20T02:40:23.663Z,48.33
2018-04-20T02:41:23.690Z,48.13
2018-04-20T02:42:23.988Z,48.23
2018-04-20T02:43:24.011Z,48.23
2018-04-20T02:44:23.748Z,48.13
2018-04-20T02:45:23.800Z,48.23
2018-04-20T02:46:24.073Z,48.52
2018-04-20T02:47:24.102Z,48.13
2018-04-20T02:48:24.113Z,48.43
2018-04-20T02:49:24.148Z,48.33
2018-04-20T02:50:24.155Z,48.43
2018-04-20T02:51:24.178Z,48.8
2018-04-20T02:52:24.208Z,48.71
2018-04-20T02:53:24.222Z,48.33
2018-04-20T02:54:24.234Z,48.9
2018-04-20T02:55:24.256Z,48.43
2018-04-20T02:56:24.270Z,49.29
2018-04-20T02:57:24.292Z,48.71
2018-04-20T02:58:24.316Z,49
2018-04-20T02:59:24.353Z,48.61
2018-04-20T03:00:24.086Z,49.1
2018-04-20T03:01:24.392Z,48.71
2018-04-20T03:02:24.411Z,49.26
2018-04-20T03:03:24.451Z,48.78
2018-04-20T03:04:24.464Z,48.8
2018-04-20T03:05:24.463Z,49.1
2018-04-20T03:06:24.479Z,48.88
2018-04-20T03:07:24.502Z,49.57
2018-04-20T03:08:24.542Z,48.88
2018-04-20T03:09:24.536Z,49.26
2018-04-20T03:10:24.572Z,49.26
2018-04-20T03:11:24.589Z,48.78
2018-04-20T03:12:24.621Z,49.26
2018-04-20T03:13:24.641Z,49.26
2018-04-20T03:14:24.662Z,49.07
2018-04-20T03:15:24.388Z,49.36
2018-04-20T03:16:24.680Z,49.26
2018-04-20T03:17:24.701Z,49.26
2018-04-20T03:18:24.779Z,49.36
2018-04-20T03:19:24.748Z,49.84
2018-04-20T03:20:24.784Z,49.16
2018-04-20T03:21:24.803Z,49.45
2018-04-20T03:22:24.818Z,49.16
2018-04-20T03:23:24.826Z,49.55
2018-04-20T03:24:24.871Z,49.36
2018-04-20T03:25:24.882Z,49.45
2018-04-20T03:26:24.894Z,49.36
2018-04-20T03:27:24.631Z,49.45
2018-04-20T03:28:24.812Z,49.65
2018-04-20T03:29:24.668Z,49.65
2018-04-20T03:30:24.991Z,49.36
2018-04-20T03:31:24.712Z,49.26
2018-04-20T03:32:25.028Z,49.65
2018-04-20T03:33:25.027Z,49.36
2018-04-20T03:34:25.061Z,49.93
2018-04-20T03:35:25.073Z,49.45
2018-04-20T03:36:24.811Z,49.55
2018-04-20T03:37:24.847Z,49.26
2018-04-20T03:38:25.144Z,49.36
2018-04-20T03:39:25.172Z,49.26
2018-04-20T03:40:25.189Z,49.16
2018-04-20T03:41:25.211Z,49.45
2018-04-20T03:42:25.234Z,49.93
2018-04-20T03:43:24.952Z,49.65
2018-04-20T03:44:25.259Z,50.12
2018-04-20T03:45:24.999Z,49.74
2018-04-20T03:46:25.024Z,49.52
2018-04-20T03:47:25.315Z,49.93
2018-04-20T03:48:25.338Z,49.84
2018-04-20T03:49:25.395Z,50.48
2018-04-20T03:50:25.105Z,50.48
2018-04-20T03:51:25.403Z,50.03
2018-04-20T03:52:25.432Z,49.93
2018-04-20T03:53:25.165Z,50.48
2018-04-20T03:54:25.482Z,50.2
2018-04-20T03:55:25.513Z,50.1
2018-04-20T03:56:25.217Z,50.2
2018-04-20T03:57:25.243Z,50.67
2018-04-20T03:58:25.554Z,50.67
2018-04-20T03:59:25.574Z,50
2018-04-20T04:00:25.596Z,50
2018-04-20T04:01:25.610Z,50.77
2018-04-20T04:02:25.637Z,50.77
2018-04-20T04:03:25.358Z,49.91
2018-04-20T04:04:25.383Z,50.1
2018-04-20T04:05:25.408Z,50.67
2018-04-20T04:06:25.698Z,49.91
2018-04-20T04:07:25.732Z,49.71
2018-04-20T04:08:25.738Z,50.2
2018-04-20T04:09:25.803Z,50.67
2018-04-20T04:10:25.778Z,50.48
2018-04-20T04:11:25.529Z,50.1
2018-04-20T04:12:25.551Z,50.58
2018-04-20T04:13:25.842Z,50.58
2018-04-20T04:14:25.855Z,50.38
2018-04-20T04:15:25.613Z,50.48
2018-04-20T04:16:25.917Z,50.58
2018-04-20T04:17:25.654Z,50.77
2018-04-20T04:18:25.668Z,50.67
2018-04-20T04:19:25.975Z,50.38
2018-04-20T04:20:25.991Z,50.58
2018-04-20T04:21:25.999Z,50.48
2018-04-20T04:22:26.023Z,50.77
2018-04-20T04:23:26.054Z,50.67
2018-04-20T04:24:26.076Z,50.38
2018-04-20T04:25:26.107Z,50.48
2018-04-20T04:26:26.114Z,50.67
2018-04-20T04:27:26.122Z,50.96
2018-04-20T04:28:25.857Z,50.96
2018-04-20T04:29:26.179Z,50.87
2018-04-20T04:30:26.202Z,50.58
2018-04-20T04:31:26.205Z,51.15
2018-04-20T04:32:26.234Z,50.96
2018-04-20T04:33:26.252Z,50.77
2018-04-20T04:34:26.263Z,50.96
2018-04-20T04:35:26.281Z,51.06
2018-04-20T04:36:26.297Z,50.58
2018-04-20T04:37:26.323Z,51.25
2018-04-20T04:38:26.067Z,50.77
2018-04-20T04:39:26.361Z,50.96
2018-04-20T04:40:26.162Z,51.34
2018-04-20T04:41:26.399Z,51.34
2018-04-20T04:42:26.433Z,51.25
2018-04-20T04:43:26.446Z,51.15
2018-04-20T04:44:26.529Z,50.87
2018-04-20T04:45:26.208Z,51.22
2018-04-20T04:46:26.515Z,50.96
2018-04-20T04:47:26.262Z,51.25
2018-04-20T04:48:26.539Z,51.32
2018-04-20T04:49:26.276Z,51.82
2018-04-20T04:50:26.297Z,51.73
2018-04-20T04:51:26.316Z,51.51
2018-04-20T04:52:26.621Z,51.61
2018-04-20T04:53:26.653Z,51.32
2018-04-20T04:54:26.721Z,51.42
2018-04-20T04:55:26.694Z,51.61
2018-04-20T04:56:26.698Z,51.61
2018-04-20T04:57:26.737Z,51.61
2018-04-20T04:58:26.750Z,51.61
2018-04-20T04:59:26.751Z,51.42
2018-04-20T05:00:26.511Z,51.61
2018-04-20T05:01:26.807Z,51.79
2018-04-20T05:02:26.827Z,51.79
2018-04-20T05:03:26.840Z,51.51
2018-04-20T05:04:26.870Z,51.7
2018-04-20T05:05:26.594Z,51.79
2018-04-20T05:06:26.622Z,51.61
2018-04-20T05:07:26.641Z,51.99
2018-04-20T05:08:26.931Z,51.7
2018-04-20T05:09:26.738Z,51.61
2018-04-20T05:10:26.967Z,51.89
2018-04-20T05:11:27.005Z,51.99
2018-04-20T05:12:27.032Z,52.37
2018-04-20T05:13:27.095Z,52.47
2018-04-20T05:14:26.775Z,52.37
2018-04-20T05:15:27.070Z,52.18
2018-04-20T05:16:27.105Z,52.66
2018-04-20T05:17:27.122Z,52.75
2018-04-20T05:18:27.129Z,52.66
2018-04-20T05:19:27.291Z,52.28
2018-04-20T05:20:27.165Z,52.28
2018-04-20T05:21:26.911Z,52.28
2018-04-20T05:22:27.206Z,52.37
2018-04-20T05:23:27.247Z,52.37
2018-04-20T05:24:26.969Z,52.47
2018-04-20T05:25:26.997Z,52.28
2018-04-20T05:26:27.021Z,52.37
2018-04-20T05:27:27.036Z,52.18
2018-04-20T05:28:27.346Z,52.18
2018-04-20T05:29:27.355Z,52.56
2018-04-20T05:30:27.382Z,52.59
2018-04-20T05:31:27.391Z,52.5
2018-04-20T05:32:27.419Z,52.5
2018-04-20T05:33:27.486Z,52.56
2018-04-20T05:34:27.175Z,52.5
2018-04-20T05:35:27.482Z,52.47
2018-04-20T05:36:27.501Z,52.87
2018-04-20T05:37:27.504Z,53.07
2018-04-20T05:38:27.540Z,53.16
2018-04-20T05:39:27.275Z,53.16
2018-04-20T05:40:27.580Z,53.45
2018-04-20T05:41:27.583Z,53.26
2018-04-20T05:42:27.600Z,52.87
2018-04-20T05:43:27.625Z,52.78
2018-04-20T05:44:27.388Z,53.45
2018-04-20T05:45:27.380Z,53.42
2018-04-20T05:46:27.417Z,53.52
2018-04-20T05:47:27.707Z,53.64
2018-04-20T05:48:27.442Z,53.23
2018-04-20T05:49:27.855Z,53.07
2018-04-20T05:50:27.777Z,54.12
2018-04-20T05:51:27.780Z,53.64
2018-04-20T05:52:27.519Z,53.36
2018-04-20T05:53:27.547Z,53.45
2018-04-20T05:54:27.894Z,53.74
2018-04-20T05:55:27.872Z,53.74
2018-04-20T05:56:27.896Z,52.78
2018-04-20T05:57:27.915Z,53.36
2018-04-20T05:58:27.912Z,52.87
2018-04-20T05:59:27.950Z,53.45
2018-04-20T06:00:27.972Z,52.87
2018-04-20T06:01:27.977Z,53.36
2018-04-20T06:02:28.013Z,53.07
2018-04-20T06:03:28.036Z,53.16
2018-04-20T06:04:28.062Z,53.07
2018-04-20T06:05:27.783Z,52.97
2018-04-20T06:06:28.113Z,53.07
2018-04-20T06:07:28.113Z,52.78
2018-04-20T06:08:27.839Z,52.69
2018-04-20T06:09:28.168Z,52.87
2018-04-20T06:10:27.887Z,52.78
2018-04-20T06:11:28.178Z,53.36
2018-04-20T06:12:28.196Z,52.81
2018-04-20T06:13:28.226Z,52.71
2018-04-20T06:14:28.243Z,53.19
2018-04-20T06:15:28.391Z,53.19
2018-04-20T06:16:28.272Z,53.77
2018-04-20T06:17:28.016Z,53.77
2018-04-20T06:18:28.041Z,53.19
2018-04-20T06:19:28.343Z,53.58
2018-04-20T06:20:28.119Z,53.58
2018-04-20T06:21:28.367Z,53.28
2018-04-20T06:22:28.393Z,52.91
2018-04-20T06:23:28.134Z,53.48
2018-04-20T06:24:28.445Z,53.38
2018-04-20T06:25:28.448Z,53.19
2018-04-20T06:26:28.469Z,53.58
2018-04-20T06:27:28.487Z,53.77
2018-04-20T06:28:28.512Z,53.77
2018-04-20T06:29:28.254Z,53
2018-04-20T06:30:28.557Z,53.22
2018-04-20T06:31:28.588Z,53.58
2018-04-20T06:32:28.603Z,53.41
2018-04-20T06:33:28.628Z,53.99
2018-04-20T06:34:28.653Z,53.5
2018-04-20T06:35:28.648Z,53.99
2018-04-20T06:36:28.666Z,54.17
2018-04-20T06:37:28.701Z,53.99
2018-04-20T06:38:28.706Z,53.89
2018-04-20T06:39:28.445Z,53.6
2018-04-20T06:40:28.525Z,53.79
2018-04-20T06:41:28.768Z,54.08
2018-04-20T06:42:28.515Z,54.08
2018-04-20T06:43:28.803Z,54.11
2018-04-20T06:44:28.848Z,54.11
2018-04-20T06:45:28.858Z,54.11
2018-04-20T06:46:28.868Z,53.91
2018-04-20T06:47:28.898Z,54.21
2018-04-20T06:48:28.922Z,53.63
2018-04-20T06:49:28.649Z,53.72
2018-04-20T06:50:28.943Z,53.34
2018-04-20T06:51:28.699Z,53.82
2018-04-20T06:52:29.031Z,52.86
2018-04-20T06:53:29.019Z,53.72
2018-04-20T06:54:29.049Z,53.44
2018-04-20T06:55:29.057Z,53.15
2018-04-20T06:56:29.085Z,53.36
2018-04-20T06:57:28.816Z,54.04
2018-04-20T06:58:29.120Z,53.66
2018-04-20T06:59:29.147Z,53.56
2018-04-20T07:00:28.877Z,53.66
2018-04-20T07:01:29.171Z,53.66
2018-04-20T07:02:29.205Z,53.56
2018-04-20T07:03:28.945Z,53.27
2018-04-20T07:04:28.947Z,53.36
2018-04-20T07:05:29.247Z,53.39
2018-04-20T07:06:29.006Z,52.91
2018-04-20T07:07:29.300Z,53.01
2018-04-20T07:08:29.308Z,53.39
2018-04-20T07:09:29.346Z,53.01
2018-04-20T07:10:29.353Z,52.91
2018-04-20T07:11:29.387Z,52.91
2018-04-20T07:12:29.416Z,52.81
2018-04-20T07:13:29.431Z,52.72
2018-04-20T07:14:29.433Z,52.81
2018-04-20T07:15:29.223Z,52.84
2018-04-20T07:16:29.470Z,52.65
2018-04-20T07:17:29.493Z,52.75
2018-04-20T07:18:29.529Z,52.75
2018-04-20T07:19:29.556Z,52.36
2018-04-20T07:20:29.604Z,52.46
2018-04-20T07:21:29.291Z,52.55
2018-04-20T07:22:29.613Z,52.17
2018-04-20T07:23:29.625Z,52.29
2018-04-20T07:24:29.645Z,52.2
2018-04-20T07:25:29.664Z,52.29
2018-04-20T07:26:29.411Z,51.91
2018-04-20T07:27:29.717Z,51.81
2018-04-20T07:28:29.719Z,52
2018-04-20T07:29:29.749Z,51.53
2018-04-20T07:30:29.774Z,51.04
2018-04-20T07:31:29.786Z,51.23
2018-04-20T07:32:29.810Z,50.85
2018-04-20T07:33:29.830Z,50.68
2018-04-20T07:34:29.574Z,50.68
2018-04-20T07:35:29.582Z,50.59
2018-04-20T07:36:29.884Z,50.68
2018-04-20T07:37:29.922Z,50.68
2018-04-20T07:38:29.932Z,50.4
2018-04-20T07:39:29.961Z,50.87
2018-04-20T07:40:29.962Z,49.84
2018-04-20T07:41:30.157Z,50.04
2018-04-20T07:42:30.034Z,50.04
2018-04-20T07:43:29.761Z,49.36
2018-04-20T07:44:30.063Z,49.36
2018-04-20T07:45:30.096Z,49.17
2018-04-20T07:46:29.822Z,48.79
2018-04-20T07:47:29.832Z,48.4
2018-04-20T07:48:30.142Z,48.81
2018-04-20T07:49:29.891Z,48.43
2018-04-20T07:50:30.193Z,48.43
2018-04-20T07:51:30.215Z,48.61
2018-04-20T07:52:30.233Z,48.61
2018-04-20T07:53:30.238Z,48.71
2018-04-20T07:54:30.266Z,48.61
2018-04-20T07:55:30.298Z,48.13
2018-04-20T07:56:30.306Z,48.35
2018-04-20T07:57:30.328Z,47.97
2018-04-20T07:58:30.348Z,47.58
2018-04-20T07:59:30.372Z,47.97
2018-04-20T08:00:30.469Z,47.58
2018-04-20T08:01:30.133Z,47.1
2018-04-20T08:02:30.159Z,47.58
2018-04-20T08:03:30.466Z,47.29
2018-04-20T08:04:30.474Z,46.83
2018-04-20T08:05:30.551Z,46.83
2018-04-20T08:06:30.532Z,47.12
2018-04-20T08:07:30.539Z,47.12
2018-04-20T08:08:30.293Z,47.31
2018-04-20T08:09:30.307Z,46.83
2018-04-20T08:10:30.620Z,46.64
2018-04-20T08:11:30.625Z,46.55
2018-04-20T08:12:30.671Z,46.28
2018-04-20T08:13:30.687Z,45.7
2018-04-20T08:14:30.688Z,45.51
2018-04-20T08:15:30.443Z,45.21
2018-04-20T08:16:30.795Z,44.73
2018-04-20T08:17:30.762Z,44.15
2018-04-20T08:18:30.779Z,43.96
2018-04-20T08:19:30.816Z,44.15
2018-04-20T08:20:30.838Z,44.06
2018-04-20T08:21:30.617Z,44.25
2018-04-20T08:22:30.866Z,43.96
2018-04-20T08:23:30.886Z,44.54
2018-04-20T08:24:30.925Z,44.66
2018-04-20T08:25:30.933Z,44.85
2018-04-20T08:26:30.688Z,44.95
2018-04-20T08:27:30.977Z,44.66
2018-04-20T08:28:30.994Z,44.37
2018-04-20T08:29:31.015Z,43.98
2018-04-20T08:30:31.055Z,43.5
2018-04-20T08:31:31.068Z,43.41
2018-04-20T08:32:31.081Z,43.6
2018-04-20T08:33:31.120Z,43.81
2018-04-20T08:34:31.128Z,43.43
2018-04-20T08:35:30.876Z,43.81
2018-04-20T08:36:30.912Z,43.43
2018-04-20T08:37:30.932Z,43.43
2018-04-20T08:38:30.947Z,43.52
2018-04-20T08:39:30.972Z,43.62
2018-04-20T08:40:31.282Z,43.64
2018-04-20T08:41:31.305Z,43.84
2018-04-20T08:42:31.043Z,43.35
2018-04-20T08:43:31.349Z,43.06
2018-04-20T08:44:31.361Z,42.68
2018-04-20T08:45:31.380Z,42.97
2018-04-20T08:46:31.399Z,42.48
2018-04-20T08:47:31.459Z,42.6
2018-04-20T08:48:31.463Z,42.7
2018-04-20T08:49:31.471Z,42.41
2018-04-20T08:50:31.488Z,41.83
2018-04-20T08:51:31.523Z,41.44
2018-04-20T08:52:31.558Z,41.54
2018-04-20T08:53:31.567Z,41.46
2018-04-20T08:54:31.584Z,41.27
2018-04-20T08:55:31.624Z,41.35
2018-04-20T08:56:31.351Z,41.27
2018-04-20T08:57:31.654Z,41.36
2018-04-20T08:58:31.677Z,41.27
2018-04-20T08:59:31.715Z,41.36
2018-04-20T09:00:31.738Z,40.59
2018-04-20T09:01:31.743Z,40.2
2018-04-20T09:02:31.781Z,40.42
2018-04-20T09:03:31.785Z,40.13
2018-04-20T09:04:31.826Z,39.74
2018-04-20T09:05:31.852Z,39.84
2018-04-20T09:06:31.878Z,40.23
2018-04-20T09:07:31.886Z,40.03
2018-04-20T09:08:31.918Z,39.84
2018-04-20T09:09:31.923Z,40.23
2018-04-20T09:10:31.951Z,39.64
2018-04-20T09:11:31.973Z,39.47
2018-04-20T09:12:32.019Z,39.57
2018-04-20T09:13:32.018Z,39.57
2018-04-20T09:14:32.054Z,39.47
2018-04-20T09:15:32.083Z,39.57
2018-04-20T09:16:31.830Z,39.67
2018-04-20T09:17:32.112Z,39.47
2018-04-20T09:18:31.872Z,39.57
2018-04-20T09:19:32.164Z,39.76
2018-04-20T09:20:32.185Z,39.69
2018-04-20T09:21:32.206Z,39.59
2018-04-20T09:22:32.239Z,39.49
2018-04-20T09:23:32.275Z,39.39
2018-04-20T09:24:32.339Z,39.2
2018-04-20T09:25:32.038Z,39.49
2018-04-20T09:26:32.342Z,39.51
2018-04-20T09:27:32.081Z,39.61
2018-04-20T09:28:32.372Z,39.41
2018-04-20T09:29:32.425Z,38.93
2018-04-20T09:30:32.440Z,38.73
2018-04-20T09:31:32.166Z,38.73
2018-04-20T09:32:32.533Z,37.87
2018-04-20T09:33:32.517Z,38.07
2018-04-20T09:34:32.537Z,37.98
2018-04-20T09:35:32.547Z,38.07
2018-04-20T09:36:32.590Z,37.69
2018-04-20T09:37:32.648Z,38.07
2018-04-20T09:38:32.616Z,37.88
2018-04-20T09:39:32.375Z,37.71
2018-04-20T09:40:32.678Z,38
2018-04-20T09:41:32.700Z,38.29
2018-04-20T09:42:32.449Z,38
2018-04-20T09:43:32.759Z,37.41
2018-04-20T09:44:32.766Z,37.81
2018-04-20T09:45:32.795Z,37.41
2018-04-20T09:46:32.538Z,37.34
2018-04-20T09:47:32.560Z,36.95
2018-04-20T09:48:32.859Z,36.66
2018-04-20T09:49:32.907Z,36.46
2018-04-20T09:50:32.909Z,36.27
2018-04-20T09:51:32.669Z,35.98
2018-04-20T09:52:32.975Z,36.19
2018-04-20T09:53:33.004Z,35.71
2018-04-20T09:54:33.035Z,36.1
2018-04-20T09:55:32.755Z,36.19
2018-04-20T09:56:33.086Z,36.38
2018-04-20T09:57:33.105Z,36.29
2018-04-20T09:58:33.109Z,35.82
2018-04-20T09:59:32.857Z,35.92
2018-04-20T10:00:33.246Z,35.63
2018-04-20T10:01:32.910Z,36.11
2018-04-20T10:02:32.940Z,35.63
2018-04-20T10:03:32.956Z,35.74
2018-04-20T10:04:32.988Z,35.64
2018-04-20T10:05:33.530Z,34.97
2018-04-20T10:06:33.028Z,34.48
2018-04-20T10:07:33.386Z,34.09
2018-04-20T10:08:33.090Z,34.5
2018-04-20T10:09:33.385Z,34.59
2018-04-20T10:10:33.415Z,34.4
2018-04-20T10:11:33.443Z,34.88
2018-04-20T10:12:33.462Z,34.69
2018-04-20T10:13:33.218Z,34.5
2018-04-20T10:14:33.522Z,34.3
2018-04-20T10:15:33.266Z,34.32
2018-04-20T10:16:33.562Z,34.7
2018-04-20T10:17:33.601Z,34.12
2018-04-20T10:18:33.335Z,34.22
2018-04-20T10:19:33.641Z,34.72
2018-04-20T10:20:33.686Z,34.33
2018-04-20T10:21:33.713Z,34.43
2018-04-20T10:22:33.736Z,34.05
2018-04-20T10:23:33.751Z,34.14
2018-04-20T10:24:33.769Z,34.25
2018-04-20T10:25:33.527Z,34.16
2018-04-20T10:26:33.844Z,34.06
2018-04-20T10:27:33.912Z,33.59
2018-04-20T10:28:33.613Z,33.38
2018-04-20T10:29:33.903Z,33.2
2018-04-20T10:30:33.929Z,33.49
2018-04-20T10:31:33.675Z,33.39
2018-04-20T10:32:33.979Z,33.12
2018-04-20T10:33:34.029Z,32.82
2018-04-20T10:34:34.033Z,32.43
2018-04-20T10:35:33.784Z,32.34
2018-04-20T10:36:34.110Z,32.43
2018-04-20T10:37:33.840Z,32.15
2018-04-20T10:38:34.154Z,32.15
2018-04-20T10:39:34.169Z,32.26
2018-04-20T10:40:34.193Z,32.45
2018-04-20T10:41:33.960Z,32.16
2018-04-20T10:42:34.253Z,31.87
2018-04-20T10:43:34.056Z,32.16
2018-04-20T10:44:34.307Z,31.28
2018-04-20T10:45:34.340Z,31.69
2018-04-20T10:46:34.375Z,31.49
2018-04-20T10:47:34.403Z,31.69
2018-04-20T10:48:34.148Z,31.59
2018-04-20T10:49:34.174Z,31.69
2018-04-20T10:50:34.478Z,31.49
2018-04-20T10:51:34.227Z,31.9
2018-04-20T10:52:34.252Z,31.31
2018-04-20T10:53:34.331Z,30.93
2018-04-20T10:54:34.301Z,30.73
2018-04-20T10:55:34.618Z,30.83
2018-04-20T10:56:34.735Z,30.54
2018-04-20T10:57:34.378Z,30.26
2018-04-20T10:58:34.683Z,29.96
2018-04-20T10:59:34.451Z,30.06
2018-04-20T11:00:34.750Z,30.55
2018-04-20T11:01:34.490Z,30.55
2018-04-20T11:02:34.816Z,30.37
2018-04-20T11:03:34.973Z,30.37
2018-04-20T11:04:34.580Z,30.57
2018-04-20T11:05:34.899Z,30.18
2018-04-20T11:06:35.163Z,29.98
2018-04-20T11:07:34.954Z,29.8
2018-04-20T11:08:34.684Z,29.9
2018-04-20T11:09:35.007Z,29.5
2018-04-20T11:10:35.033Z,29.31
2018-04-20T11:11:35.111Z,29.5
2018-04-20T11:12:35.078Z,29.21
2018-04-20T11:13:35.105Z,29.31
2018-04-20T11:14:35.139Z,29.22
2018-04-20T11:15:35.176Z,28.93
2018-04-20T11:16:35.189Z,29.13
2018-04-20T11:17:34.950Z,29.13
2018-04-20T11:18:35.253Z,29.03
2018-04-20T11:19:35.268Z,29.22
2018-04-20T11:20:35.315Z,29.04
2018-04-20T11:21:35.330Z,29.34
2018-04-20T11:22:35.376Z,28.75
2018-04-20T11:23:35.402Z,28.94
2018-04-20T11:24:35.136Z,29.14
2018-04-20T11:25:35.464Z,29.06
2018-04-20T11:26:35.498Z,28.38
2018-04-20T11:27:35.222Z,27.88
2018-04-20T11:28:35.585Z,28.18
2018-04-20T11:29:35.286Z,28.08
2018-04-20T11:30:35.336Z,27.98
2018-04-20T11:31:35.357Z,27.49
2018-04-20T11:32:35.663Z,27.88
2018-04-20T11:33:35.686Z,27.88
2018-04-20T11:34:35.431Z,27.88
2018-04-20T11:35:35.745Z,27.8
2018-04-20T11:36:35.766Z,27.8
2018-04-20T11:37:35.804Z,27.9
2018-04-20T11:38:35.835Z,27.8
2018-04-20T11:39:35.907Z,27.9
2018-04-20T11:40:35.878Z,28.3
2018-04-20T11:41:35.922Z,28.2
2018-04-20T11:42:35.657Z,27.91
2018-04-20T11:43:35.981Z,27.62
2018-04-20T11:44:36.018Z,27.42
2018-04-20T11:45:36.044Z,27.23
2018-04-20T11:46:36.061Z,27.33
2018-04-20T11:47:36.085Z,27.83
2018-04-20T11:48:35.835Z,27.53
2018-04-20T11:49:36.143Z,27.34
2018-04-20T11:50:36.170Z,27.34
2018-04-20T11:51:36.225Z,27.34
2018-04-20T11:52:36.237Z,27.34
2018-04-20T11:53:36.271Z,27.14
2018-04-20T11:54:36.352Z,26.95
2018-04-20T11:55:36.351Z,26.65
2018-04-20T11:56:36.075Z,26.75
2018-04-20T11:57:36.119Z,26.67
2018-04-20T11:58:36.139Z,26.84
2018-04-20T11:59:36.458Z,26.76
2018-04-20T12:00:36.479Z,26.76
2018-04-20T12:01:36.236Z,26.46
2018-04-20T12:02:36.539Z,26.96
2018-04-20T12:03:36.587Z,26.58
2018-04-20T12:04:36.316Z,26.48
2018-04-20T12:05:36.831Z,26.18
2018-04-20T12:06:36.401Z,26.09
2018-04-20T12:07:36.405Z,25.6
2018-04-20T12:08:36.720Z,26.28
2018-04-20T12:09:36.488Z,26
2018-04-20T12:10:36.796Z,26
2018-04-20T12:11:36.810Z,25.9
2018-04-20T12:12:36.559Z,25.81
2018-04-20T12:13:36.882Z,25.51
2018-04-20T12:14:36.911Z,25.52
2018-04-20T12:15:36.666Z,25.52
2018-04-20T12:16:36.980Z,25.43
2018-04-20T12:17:36.729Z,25.43
2018-04-20T12:18:37.049Z,24.93
2018-04-20T12:19:37.100Z,24.65
2018-04-20T12:20:37.083Z,24.65
2018-04-20T12:21:37.113Z,24.46
2018-04-20T12:22:37.146Z,24.55
2018-04-20T12:23:37.179Z,24.36
2018-04-20T12:24:36.933Z,24.55
2018-04-20T12:25:36.967Z,24.65
2018-04-20T12:26:37.004Z,24.26
2018-04-20T12:27:37.311Z,23.88
2018-04-20T12:28:37.347Z,23.88
2018-04-20T12:29:37.389Z,23.58
2018-04-20T12:30:37.127Z,23.39
2018-04-20T12:31:37.609Z,22.99
2018-04-20T12:32:37.478Z,22.8
2018-04-20T12:33:37.557Z,23.09
2018-04-20T12:34:37.535Z,23.2
2018-04-20T12:35:37.562Z,23
2018-04-20T12:36:37.311Z,23.4
2018-04-20T12:37:37.698Z,23.2
2018-04-20T12:38:37.662Z,23.5
2018-04-20T12:39:37.688Z,23.3
2018-04-20T12:40:37.920Z,23.1
2018-04-20T12:41:37.752Z,23.2
2018-04-20T12:42:37.803Z,23.4
2018-04-20T12:43:37.518Z,23
2018-04-20T12:44:37.552Z,22.81
2018-04-20T12:45:37.974Z,23.4
2018-04-20T12:46:37.909Z,23.4
2018-04-20T12:47:38.078Z,23.31
2018-04-20T12:48:37.965Z,22.72
2018-04-20T12:49:38.007Z,22.62
2018-04-20T12:50:37.750Z,22.52
2018-04-20T12:51:38.074Z,22.72
2018-04-20T12:52:38.098Z,22.62
2018-04-20T12:53:38.132Z,22.33
2018-04-20T12:54:38.162Z,22.52
2018-04-20T12:55:38.178Z,22.42
2018-04-20T12:56:38.210Z,22.23